sensor_id;sensor_type;location;lat;lon;timestamp;temperature;humidity
7234;DHT22;3658;47.992;10.158;2022-07-19T00:02:11;23.50;47.30
7234;DHT22;3658;47.992;10.158;2022-07-19T00:04:38;23.60;47.40
7234;DHT22;3658;47.992;10.158;2022-07-19T00:07:05;23.50;47.30
7234;DHT22;3658;47.992;10.158;2022-07-19T00:09:34;23.60;47.40
7234;DHT22;3658;47.992;10.158;2022-07-19T00:12:01;23.50;47.40
7234;DHT22;3658;47.992;10.158;2022-07-19T00:14:28;23.60;47.40
7234;DHT22;3658;47.992;10.158;2022-07-19T00:16:55;23.50;47.40
7234;DHT22;3658;47.992;10.158;2022-07-19T00:19:22;23.60;47.40
7234;DHT22;3658;47.992;10.158;2022-07-19T00:21:49;23.60;47.40
7234;DHT22;3658;47.992;10.158;2022-07-19T00:24:16;23.50;47.30
7234;DHT22;3658;47.992;10.158;2022-07-19T00:26:45;23.50;47.40
7234;DHT22;3658;47.992;10.158;2022-07-19T00:29:12;23.60;47.40
7234;DHT22;3658;47.992;10.158;2022-07-19T00:31:39;23.50;47.30
7234;DHT22;3658;47.992;10.158;2022-07-19T00:34:06;23.60;47.40
7234;DHT22;3658;47.992;10.158;2022-07-19T00:36:33;23.50;47.40
7234;DHT22;3658;47.992;10.158;2022-07-19T00:39:00;23.60;47.40
7234;DHT22;3658;47.992;10.158;2022-07-19T00:41:27;23.50;47.40
7234;DHT22;3658;47.992;10.158;2022-07-19T00:43:56;23.50;47.40
7234;DHT22;3658;47.992;10.158;2022-07-19T00:46:23;23.60;47.40
7234;DHT22;3658;47.992;10.158;2022-07-19T00:48:50;23.60;47.40
7234;DHT22;3658;47.992;10.158;2022-07-19T00:51:18;23.50;47.40
7234;DHT22;3658;47.992;10.158;2022-07-19T00:53:45;23.60;47.50
7234;DHT22;3658;47.992;10.158;2022-07-19T00:56:14;23.50;47.40
7234;DHT22;3658;47.992;10.158;2022-07-19T00:58:41;23.60;47.50
7234;DHT22;3658;47.992;10.158;2022-07-19T01:01:10;23.60;47.50
7234;DHT22;3658;47.992;10.158;2022-07-19T01:03:38;23.60;47.50
7234;DHT22;3658;47.992;10.158;2022-07-19T01:06:06;23.60;47.50
7234;DHT22;3658;47.992;10.158;2022-07-19T01:08:35;23.50;47.40
7234;DHT22;3658;47.992;10.158;2022-07-19T01:11:03;23.60;47.50
7234;DHT22;3658;47.992;10.158;2022-07-19T01:13:30;23.60;47.50
7234;DHT22;3658;47.992;10.158;2022-07-19T01:15:58;23.50;47.40
7234;DHT22;3658;47.992;10.158;2022-07-19T01:18:26;23.60;47.50
7234;DHT22;3658;47.992;10.158;2022-07-19T01:20:53;23.60;47.50
7234;DHT22;3658;47.992;10.158;2022-07-19T01:23:22;23.60;47.50
7234;DHT22;3658;47.992;10.158;2022-07-19T01:25:49;23.60;47.50
7234;DHT22;3658;47.992;10.158;2022-07-19T01:28:16;23.60;47.50
7234;DHT22;3658;47.992;10.158;2022-07-19T01:30:43;23.60;47.50
7234;DHT22;3658;47.992;10.158;2022-07-19T01:33:10;23.60;47.50
7234;DHT22;3658;47.992;10.158;2022-07-19T01:35:37;23.60;47.50
7234;DHT22;3658;47.992;10.158;2022-07-19T01:38:04;23.50;47.50
7234;DHT22;3658;47.992;10.158;2022-07-19T01:40:33;23.60;47.60
7234;DHT22;3658;47.992;10.158;2022-07-19T01:43:00;23.60;47.60
7234;DHT22;3658;47.992;10.158;2022-07-19T01:45:27;23.60;47.60
7234;DHT22;3658;47.992;10.158;2022-07-19T01:47:54;23.60;47.60
7234;DHT22;3658;47.992;10.158;2022-07-19T01:50:21;23.50;47.50
7234;DHT22;3658;47.992;10.158;2022-07-19T01:52:48;23.60;47.60
7234;DHT22;3658;47.992;10.158;2022-07-19T01:55:15;23.60;47.60
7234;DHT22;3658;47.992;10.158;2022-07-19T01:57:43;23.60;47.60
7234;DHT22;3658;47.992;10.158;2022-07-19T02:00:11;23.50;47.60
7234;DHT22;3658;47.992;10.158;2022-07-19T02:02:39;23.60;47.60
7234;DHT22;3658;47.992;10.158;2022-07-19T02:05:07;23.60;47.60
7234;DHT22;3658;47.992;10.158;2022-07-19T02:07:34;23.60;47.60
7234;DHT22;3658;47.992;10.158;2022-07-19T02:10:01;23.60;47.60
7234;DHT22;3658;47.992;10.158;2022-07-19T02:12:28;23.60;47.60
7234;DHT22;3658;47.992;10.158;2022-07-19T02:14:57;23.60;47.60
7234;DHT22;3658;47.992;10.158;2022-07-19T02:17:24;23.60;47.70
7234;DHT22;3658;47.992;10.158;2022-07-19T02:19:51;23.60;47.60
7234;DHT22;3658;47.992;10.158;2022-07-19T02:22:18;23.60;47.70
7234;DHT22;3658;47.992;10.158;2022-07-19T02:24:45;23.50;47.60
7234;DHT22;3658;47.992;10.158;2022-07-19T02:27:12;23.60;47.70
7234;DHT22;3658;47.992;10.158;2022-07-19T02:29:40;23.60;47.70
7234;DHT22;3658;47.992;10.158;2022-07-19T02:32:08;23.60;47.70
7234;DHT22;3658;47.992;10.158;2022-07-19T02:34:35;23.60;47.70
7234;DHT22;3658;47.992;10.158;2022-07-19T02:37:03;23.60;47.70
7234;DHT22;3658;47.992;10.158;2022-07-19T02:39:30;23.50;47.60
7234;DHT22;3658;47.992;10.158;2022-07-19T02:41:57;23.60;47.70
7234;DHT22;3658;47.992;10.158;2022-07-19T02:44:24;23.60;47.70
7234;DHT22;3658;47.992;10.158;2022-07-19T02:46:51;23.60;47.70
7234;DHT22;3658;47.992;10.158;2022-07-19T02:49:19;23.50;47.60
7234;DHT22;3658;47.992;10.158;2022-07-19T02:51:47;23.50;47.60
7234;DHT22;3658;47.992;10.158;2022-07-19T02:54:14;23.60;47.70
7234;DHT22;3658;47.992;10.158;2022-07-19T02:56:41;23.50;47.60
7234;DHT22;3658;47.992;10.158;2022-07-19T02:59:08;23.50;47.70
7234;DHT22;3658;47.992;10.158;2022-07-19T03:01:35;23.50;48.30
7234;DHT22;3658;47.992;10.158;2022-07-19T03:04:02;23.50;47.60
7234;DHT22;3658;47.992;10.158;2022-07-19T03:06:31;23.60;47.70
7234;DHT22;3658;47.992;10.158;2022-07-19T03:08:58;23.60;47.80
7234;DHT22;3658;47.992;10.158;2022-07-19T03:11:24;23.50;47.70
7234;DHT22;3658;47.992;10.158;2022-07-19T03:13:51;23.50;47.60
7234;DHT22;3658;47.992;10.158;2022-07-19T03:16:18;23.50;47.70
7234;DHT22;3658;47.992;10.158;2022-07-19T03:18:45;23.60;47.80
7234;DHT22;3658;47.992;10.158;2022-07-19T03:21:12;23.60;47.80
7234;DHT22;3658;47.992;10.158;2022-07-19T03:23:41;23.50;47.70
7234;DHT22;3658;47.992;10.158;2022-07-19T03:26:08;23.60;47.80
7234;DHT22;3658;47.992;10.158;2022-07-19T03:28:35;23.50;47.70
7234;DHT22;3658;47.992;10.158;2022-07-19T03:31:02;23.60;47.80
7234;DHT22;3658;47.992;10.158;2022-07-19T03:33:29;23.50;47.70
7234;DHT22;3658;47.992;10.158;2022-07-19T03:35:57;23.50;47.70
7234;DHT22;3658;47.992;10.158;2022-07-19T03:38:24;23.50;47.80
7234;DHT22;3658;47.992;10.158;2022-07-19T03:40:52;23.60;47.90
7234;DHT22;3658;47.992;10.158;2022-07-19T03:43:19;23.50;47.70
7234;DHT22;3658;47.992;10.158;2022-07-19T03:45:49;23.50;47.70
7234;DHT22;3658;47.992;10.158;2022-07-19T03:48:16;23.50;47.70
7234;DHT22;3658;47.992;10.158;2022-07-19T03:50:43;23.50;47.80
7234;DHT22;3658;47.992;10.158;2022-07-19T03:53:10;23.50;47.80
7234;DHT22;3658;47.992;10.158;2022-07-19T03:55:38;23.50;47.80
7234;DHT22;3658;47.992;10.158;2022-07-19T03:58:07;23.60;47.80
7234;DHT22;3658;47.992;10.158;2022-07-19T04:00:34;23.50;47.80
7234;DHT22;3658;47.992;10.158;2022-07-19T04:03:01;23.50;47.80
7234;DHT22;3658;47.992;10.158;2022-07-19T04:05:28;23.50;47.70
7234;DHT22;3658;47.992;10.158;2022-07-19T04:07:55;23.50;47.80
7234;DHT22;3658;47.992;10.158;2022-07-19T04:10:22;23.50;47.70
7234;DHT22;3658;47.992;10.158;2022-07-19T04:12:49;23.60;47.80
7234;DHT22;3658;47.992;10.158;2022-07-19T04:15:17;23.60;47.80
7234;DHT22;3658;47.992;10.158;2022-07-19T04:17:44;23.50;47.70
7234;DHT22;3658;47.992;10.158;2022-07-19T04:20:11;23.50;47.80
7234;DHT22;3658;47.992;10.158;2022-07-19T04:22:39;23.50;47.80
7234;DHT22;3658;47.992;10.158;2022-07-19T04:25:07;23.50;47.70
7234;DHT22;3658;47.992;10.158;2022-07-19T04:27:34;23.50;47.70
7234;DHT22;3658;47.992;10.158;2022-07-19T04:30:01;23.60;47.90
7234;DHT22;3658;47.992;10.158;2022-07-19T04:32:29;23.50;47.80
7234;DHT22;3658;47.992;10.158;2022-07-19T04:34:57;23.50;47.70
7234;DHT22;3658;47.992;10.158;2022-07-19T04:37:24;23.60;47.80
7234;DHT22;3658;47.992;10.158;2022-07-19T04:39:51;23.50;47.70
7234;DHT22;3658;47.992;10.158;2022-07-19T04:42:18;23.50;47.70
7234;DHT22;3658;47.992;10.158;2022-07-19T04:44:46;23.50;47.70
7234;DHT22;3658;47.992;10.158;2022-07-19T04:47:13;23.60;47.80
7234;DHT22;3658;47.992;10.158;2022-07-19T04:49:41;23.60;47.80
7234;DHT22;3658;47.992;10.158;2022-07-19T04:52:08;23.50;47.70
7234;DHT22;3658;47.992;10.158;2022-07-19T04:54:35;23.60;47.80
7234;DHT22;3658;47.992;10.158;2022-07-19T04:57:02;23.60;47.80
7234;DHT22;3658;47.992;10.158;2022-07-19T04:59:29;23.50;47.70
7234;DHT22;3658;47.992;10.158;2022-07-19T05:01:56;23.60;47.90
7234;DHT22;3658;47.992;10.158;2022-07-19T05:04:23;23.60;47.80
7234;DHT22;3658;47.992;10.158;2022-07-19T05:06:51;23.50;47.80
7234;DHT22;3658;47.992;10.158;2022-07-19T05:09:22;23.60;47.90
7234;DHT22;3658;47.992;10.158;2022-07-19T05:11:50;23.50;47.70
7234;DHT22;3658;47.992;10.158;2022-07-19T05:14:17;23.60;47.70
7234;DHT22;3658;47.992;10.158;2022-07-19T05:16:44;23.60;47.90
7234;DHT22;3658;47.992;10.158;2022-07-19T05:19:11;23.50;47.70
7234;DHT22;3658;47.992;10.158;2022-07-19T05:21:38;23.50;47.60
7234;DHT22;3658;47.992;10.158;2022-07-19T05:24:07;23.50;47.60
7234;DHT22;3658;47.992;10.158;2022-07-19T05:26:34;23.50;47.50
7234;DHT22;3658;47.992;10.158;2022-07-19T05:29:03;23.50;47.40
7234;DHT22;3658;47.992;10.158;2022-07-19T05:31:30;23.50;47.40
7234;DHT22;3658;47.992;10.158;2022-07-19T05:33:57;23.50;47.40
7234;DHT22;3658;47.992;10.158;2022-07-19T05:36:24;23.50;47.40
7234;DHT22;3658;47.992;10.158;2022-07-19T05:38:51;23.50;47.40
7234;DHT22;3658;47.992;10.158;2022-07-19T05:41:20;23.50;47.30
7234;DHT22;3658;47.992;10.158;2022-07-19T05:43:50;23.50;47.30
7234;DHT22;3658;47.992;10.158;2022-07-19T05:46:17;23.50;47.30
7234;DHT22;3658;47.992;10.158;2022-07-19T05:48:45;23.50;47.30
7234;DHT22;3658;47.992;10.158;2022-07-19T05:51:12;23.60;47.30
7234;DHT22;3658;47.992;10.158;2022-07-19T05:53:39;23.50;47.20
7234;DHT22;3658;47.992;10.158;2022-07-19T05:56:06;23.50;47.20
7234;DHT22;3658;47.992;10.158;2022-07-19T05:58:35;23.50;47.20
7234;DHT22;3658;47.992;10.158;2022-07-19T06:01:03;23.50;47.20
7234;DHT22;3658;47.992;10.158;2022-07-19T06:03:49;23.50;47.20
7234;DHT22;3658;47.992;10.158;2022-07-19T06:06:17;23.50;47.20
7234;DHT22;3658;47.992;10.158;2022-07-19T06:08:44;23.50;47.20
7234;DHT22;3658;47.992;10.158;2022-07-19T06:11:12;23.50;47.10
7234;DHT22;3658;47.992;10.158;2022-07-19T06:13:42;23.50;47.10
7234;DHT22;3658;47.992;10.158;2022-07-19T06:16:09;23.50;47.10
7234;DHT22;3658;47.992;10.158;2022-07-19T06:18:37;23.50;47.00
7234;DHT22;3658;47.992;10.158;2022-07-19T06:21:07;23.50;47.00
7234;DHT22;3658;47.992;10.158;2022-07-19T06:23:35;23.50;46.90
7234;DHT22;3658;47.992;10.158;2022-07-19T06:26:02;23.50;46.90
7234;DHT22;3658;47.992;10.158;2022-07-19T06:28:29;23.50;46.90
7234;DHT22;3658;47.992;10.158;2022-07-19T06:30:58;23.50;46.60
7234;DHT22;3658;47.992;10.158;2022-07-19T06:33:25;23.40;46.30
7234;DHT22;3658;47.992;10.158;2022-07-19T06:35:52;23.50;46.30
7234;DHT22;3658;47.992;10.158;2022-07-19T06:38:20;23.50;46.30
7234;DHT22;3658;47.992;10.158;2022-07-19T06:40:47;23.50;46.30
7234;DHT22;3658;47.992;10.158;2022-07-19T06:43:14;23.50;46.30
7234;DHT22;3658;47.992;10.158;2022-07-19T06:45:41;23.60;46.30
7234;DHT22;3658;47.992;10.158;2022-07-19T06:48:09;23.60;46.40
7234;DHT22;3658;47.992;10.158;2022-07-19T06:50:36;23.60;46.40
7234;DHT22;3658;47.992;10.158;2022-07-19T06:53:03;23.60;46.50
7234;DHT22;3658;47.992;10.158;2022-07-19T06:55:30;23.60;46.50
7234;DHT22;3658;47.992;10.158;2022-07-19T06:57:57;23.60;46.30
7234;DHT22;3658;47.992;10.158;2022-07-19T07:00:24;23.60;46.30
7234;DHT22;3658;47.992;10.158;2022-07-19T07:02:51;23.60;46.30
7234;DHT22;3658;47.992;10.158;2022-07-19T07:05:19;23.60;46.20
7234;DHT22;3658;47.992;10.158;2022-07-19T07:07:47;23.60;46.30
7234;DHT22;3658;47.992;10.158;2022-07-19T07:10:17;23.60;46.30
7234;DHT22;3658;47.992;10.158;2022-07-19T07:12:44;23.60;46.20
7234;DHT22;3658;47.992;10.158;2022-07-19T07:15:11;23.60;46.30
7234;DHT22;3658;47.992;10.158;2022-07-19T07:17:39;23.60;46.30
7234;DHT22;3658;47.992;10.158;2022-07-19T07:20:07;23.60;46.60
7234;DHT22;3658;47.992;10.158;2022-07-19T07:22:36;23.60;47.20
7234;DHT22;3658;47.992;10.158;2022-07-19T07:25:04;23.60;47.10
7234;DHT22;3658;47.992;10.158;2022-07-19T07:27:31;23.70;47.40
7234;DHT22;3658;47.992;10.158;2022-07-19T07:29:58;23.70;47.70
7234;DHT22;3658;47.992;10.158;2022-07-19T07:32:25;23.70;48.10
7234;DHT22;3658;47.992;10.158;2022-07-19T07:34:53;23.70;48.30
7234;DHT22;3658;47.992;10.158;2022-07-19T07:37:20;23.70;48.30
7234;DHT22;3658;47.992;10.158;2022-07-19T07:39:48;23.70;48.60
7234;DHT22;3658;47.992;10.158;2022-07-19T07:42:15;23.70;48.70
7234;DHT22;3658;47.992;10.158;2022-07-19T07:44:42;23.70;48.70
7234;DHT22;3658;47.992;10.158;2022-07-19T07:47:09;23.70;48.80
7234;DHT22;3658;47.992;10.158;2022-07-19T07:49:38;23.70;48.90
7234;DHT22;3658;47.992;10.158;2022-07-19T07:52:06;23.70;49.00
7234;DHT22;3658;47.992;10.158;2022-07-19T07:54:33;23.80;49.20
7234;DHT22;3658;47.992;10.158;2022-07-19T07:57:03;23.80;49.20
7234;DHT22;3658;47.992;10.158;2022-07-19T07:59:30;23.70;49.20
7234;DHT22;3658;47.992;10.158;2022-07-19T08:01:57;23.80;49.30
7234;DHT22;3658;47.992;10.158;2022-07-19T08:04:24;23.80;49.50
7234;DHT22;3658;47.992;10.158;2022-07-19T08:06:51;23.80;49.40
7234;DHT22;3658;47.992;10.158;2022-07-19T08:09:18;23.80;49.60
7234;DHT22;3658;47.992;10.158;2022-07-19T08:11:45;23.80;49.60
7234;DHT22;3658;47.992;10.158;2022-07-19T08:14:13;23.80;49.70
7234;DHT22;3658;47.992;10.158;2022-07-19T08:16:40;23.80;49.70
7234;DHT22;3658;47.992;10.158;2022-07-19T08:19:07;23.80;49.70
7234;DHT22;3658;47.992;10.158;2022-07-19T08:21:34;23.80;49.80
7234;DHT22;3658;47.992;10.158;2022-07-19T08:24:01;23.80;49.70
7234;DHT22;3658;47.992;10.158;2022-07-19T08:26:28;23.80;49.80
7234;DHT22;3658;47.992;10.158;2022-07-19T08:28:57;23.80;49.90
7234;DHT22;3658;47.992;10.158;2022-07-19T08:31:25;23.90;50.20
7234;DHT22;3658;47.992;10.158;2022-07-19T08:33:52;23.80;50.30
7234;DHT22;3658;47.992;10.158;2022-07-19T08:36:19;23.80;50.20
7234;DHT22;3658;47.992;10.158;2022-07-19T08:38:46;23.80;50.30
7234;DHT22;3658;47.992;10.158;2022-07-19T08:41:14;23.90;50.50
7234;DHT22;3658;47.992;10.158;2022-07-19T08:43:42;23.90;50.60
7234;DHT22;3658;47.992;10.158;2022-07-19T08:46:09;23.90;50.70
7234;DHT22;3658;47.992;10.158;2022-07-19T08:48:37;23.90;50.70
7234;DHT22;3658;47.992;10.158;2022-07-19T08:51:05;23.90;50.70
7234;DHT22;3658;47.992;10.158;2022-07-19T08:53:34;23.90;50.80
7234;DHT22;3658;47.992;10.158;2022-07-19T08:56:04;23.90;50.90
7234;DHT22;3658;47.992;10.158;2022-07-19T08:58:51;23.90;50.60
7234;DHT22;3658;47.992;10.158;2022-07-19T09:01:17;23.90;49.90
7234;DHT22;3658;47.992;10.158;2022-07-19T09:04:11;23.80;49.20
7234;DHT22;3658;47.992;10.158;2022-07-19T09:06:44;23.80;48.90
7234;DHT22;3658;47.992;10.158;2022-07-19T09:09:12;23.80;48.60
7234;DHT22;3658;47.992;10.158;2022-07-19T09:11:41;23.80;48.30
7234;DHT22;3658;47.992;10.158;2022-07-19T09:14:15;23.80;48.80
7234;DHT22;3658;47.992;10.158;2022-07-19T09:16:59;23.80;49.40
7234;DHT22;3658;47.992;10.158;2022-07-19T09:19:34;23.80;49.50
7234;DHT22;3658;47.992;10.158;2022-07-19T09:22:02;23.80;49.50
7234;DHT22;3658;47.992;10.158;2022-07-19T09:24:32;23.80;49.30
7234;DHT22;3658;47.992;10.158;2022-07-19T09:27:02;23.80;49.10
7234;DHT22;3658;47.992;10.158;2022-07-19T09:29:31;23.80;48.70
7234;DHT22;3658;47.992;10.158;2022-07-19T09:32:09;23.80;48.80
7234;DHT22;3658;47.992;10.158;2022-07-19T09:34:39;23.80;49.40
7234;DHT22;3658;47.992;10.158;2022-07-19T09:37:11;23.80;49.90
7234;DHT22;3658;47.992;10.158;2022-07-19T09:39:39;23.90;50.10
7234;DHT22;3658;47.992;10.158;2022-07-19T09:42:07;23.90;50.50
7234;DHT22;3658;47.992;10.158;2022-07-19T09:44:34;23.90;50.70
7234;DHT22;3658;47.992;10.158;2022-07-19T09:47:02;23.90;50.50
7234;DHT22;3658;47.992;10.158;2022-07-19T09:49:30;23.90;50.60
7234;DHT22;3658;47.992;10.158;2022-07-19T09:51:58;23.90;50.60
7234;DHT22;3658;47.992;10.158;2022-07-19T09:54:28;23.90;50.10
7234;DHT22;3658;47.992;10.158;2022-07-19T09:56:57;23.90;49.50
7234;DHT22;3658;47.992;10.158;2022-07-19T09:59:25;23.90;50.00
7234;DHT22;3658;47.992;10.158;2022-07-19T10:01:54;23.90;50.20
7234;DHT22;3658;47.992;10.158;2022-07-19T10:04:24;23.90;50.40
7234;DHT22;3658;47.992;10.158;2022-07-19T10:06:52;23.90;50.50
7234;DHT22;3658;47.992;10.158;2022-07-19T10:09:22;23.90;50.30
7234;DHT22;3658;47.992;10.158;2022-07-19T10:11:51;23.90;50.10
7234;DHT22;3658;47.992;10.158;2022-07-19T10:14:18;23.90;50.00
7234;DHT22;3658;47.992;10.158;2022-07-19T10:17:01;23.90;49.50
7234;DHT22;3658;47.992;10.158;2022-07-19T10:19:34;23.90;49.20
7234;DHT22;3658;47.992;10.158;2022-07-19T10:22:03;23.90;49.00
7234;DHT22;3658;47.992;10.158;2022-07-19T10:24:59;23.90;48.90
7234;DHT22;3658;47.992;10.158;2022-07-19T10:27:38;23.80;48.80
7234;DHT22;3658;47.992;10.158;2022-07-19T10:30:39;23.90;48.80
7234;DHT22;3658;47.992;10.158;2022-07-19T10:33:27;23.90;48.80
7234;DHT22;3658;47.992;10.158;2022-07-19T10:35:54;23.80;48.70
7234;DHT22;3658;47.992;10.158;2022-07-19T10:38:22;23.80;48.60
7234;DHT22;3658;47.992;10.158;2022-07-19T10:40:51;23.80;48.60
7234;DHT22;3658;47.992;10.158;2022-07-19T10:43:22;23.80;48.60
7234;DHT22;3658;47.992;10.158;2022-07-19T10:46:09;23.80;48.60
7234;DHT22;3658;47.992;10.158;2022-07-19T10:48:41;23.80;48.50
7234;DHT22;3658;47.992;10.158;2022-07-19T10:51:27;23.80;48.50
7234;DHT22;3658;47.992;10.158;2022-07-19T10:53:58;23.80;48.50
7234;DHT22;3658;47.992;10.158;2022-07-19T10:59:34;23.80;48.60
7234;DHT22;3658;47.992;10.158;2022-07-19T11:02:03;23.80;48.50
7234;DHT22;3658;47.992;10.158;2022-07-19T11:04:32;23.80;48.50
7234;DHT22;3658;47.992;10.158;2022-07-19T11:07:15;23.80;48.50
7234;DHT22;3658;47.992;10.158;2022-07-19T11:09:45;23.80;48.50
7234;DHT22;3658;47.992;10.158;2022-07-19T11:12:25;23.80;48.40
7234;DHT22;3658;47.992;10.158;2022-07-19T11:14:53;23.80;48.40
7234;DHT22;3658;47.992;10.158;2022-07-19T11:17:20;23.80;48.50
7234;DHT22;3658;47.992;10.158;2022-07-19T11:19:57;23.80;48.40
7234;DHT22;3658;47.992;10.158;2022-07-19T11:22:24;23.80;48.50
7234;DHT22;3658;47.992;10.158;2022-07-19T11:24:52;23.80;48.40
7234;DHT22;3658;47.992;10.158;2022-07-19T11:27:20;23.80;48.40
7234;DHT22;3658;47.992;10.158;2022-07-19T11:29:53;23.90;48.60
7234;DHT22;3658;47.992;10.158;2022-07-19T11:32:20;23.80;48.70
7234;DHT22;3658;47.992;10.158;2022-07-19T11:34:53;23.80;48.70
7234;DHT22;3658;47.992;10.158;2022-07-19T11:37:25;23.90;48.70
7234;DHT22;3658;47.992;10.158;2022-07-19T11:39:52;23.90;48.70
7234;DHT22;3658;47.992;10.158;2022-07-19T11:42:32;23.80;48.70
7234;DHT22;3658;47.992;10.158;2022-07-19T11:44:59;23.80;48.60
7234;DHT22;3658;47.992;10.158;2022-07-19T11:47:26;23.80;48.60
7234;DHT22;3658;47.992;10.158;2022-07-19T11:49:53;23.80;48.60
7234;DHT22;3658;47.992;10.158;2022-07-19T11:52:20;23.80;48.60
7234;DHT22;3658;47.992;10.158;2022-07-19T11:55:00;23.80;48.50
7234;DHT22;3658;47.992;10.158;2022-07-19T11:57:27;23.80;48.50
7234;DHT22;3658;47.992;10.158;2022-07-19T11:59:57;23.80;48.50
7234;DHT22;3658;47.992;10.158;2022-07-19T12:02:24;23.80;48.50
7234;DHT22;3658;47.992;10.158;2022-07-19T12:04:51;23.80;48.60
7234;DHT22;3658;47.992;10.158;2022-07-19T12:07:18;23.80;48.50
7234;DHT22;3658;47.992;10.158;2022-07-19T12:09:45;23.90;48.60
7234;DHT22;3658;47.992;10.158;2022-07-19T12:12:13;23.80;48.50
7234;DHT22;3658;47.992;10.158;2022-07-19T12:14:41;23.80;48.50
7234;DHT22;3658;47.992;10.158;2022-07-19T12:17:12;23.80;48.50
7234;DHT22;3658;47.992;10.158;2022-07-19T12:19:41;23.80;48.60
7234;DHT22;3658;47.992;10.158;2022-07-19T12:22:25;23.80;48.40
7234;DHT22;3658;47.992;10.158;2022-07-19T12:24:52;23.80;48.40
7234;DHT22;3658;47.992;10.158;2022-07-19T12:27:20;23.80;48.50
7234;DHT22;3658;47.992;10.158;2022-07-19T12:29:53;23.80;48.40
7234;DHT22;3658;47.992;10.158;2022-07-19T12:32:28;23.80;48.40
7234;DHT22;3658;47.992;10.158;2022-07-19T12:34:57;23.80;48.40
7234;DHT22;3658;47.992;10.158;2022-07-19T12:37:30;23.90;48.50
7234;DHT22;3658;47.992;10.158;2022-07-19T12:40:04;23.80;48.40
7234;DHT22;3658;47.992;10.158;2022-07-19T12:42:37;23.80;48.40
7234;DHT22;3658;47.992;10.158;2022-07-19T12:45:05;23.90;48.50
7234;DHT22;3658;47.992;10.158;2022-07-19T12:47:34;23.90;48.50
7234;DHT22;3658;47.992;10.158;2022-07-19T12:50:02;23.80;48.40
7234;DHT22;3658;47.992;10.158;2022-07-19T12:52:29;23.80;48.40
7234;DHT22;3658;47.992;10.158;2022-07-19T12:54:56;23.80;48.40
7234;DHT22;3658;47.992;10.158;2022-07-19T12:57:23;23.80;48.40
7234;DHT22;3658;47.992;10.158;2022-07-19T12:59:50;23.90;49.20
7234;DHT22;3658;47.992;10.158;2022-07-19T13:02:17;23.90;48.50
7234;DHT22;3658;47.992;10.158;2022-07-19T13:04:46;23.80;48.40
7234;DHT22;3658;47.992;10.158;2022-07-19T13:07:14;23.90;48.50
7234;DHT22;3658;47.992;10.158;2022-07-19T13:09:41;23.90;48.50
7234;DHT22;3658;47.992;10.158;2022-07-19T13:12:08;23.80;48.40
7234;DHT22;3658;47.992;10.158;2022-07-19T13:14:36;23.90;48.50
7234;DHT22;3658;47.992;10.158;2022-07-19T13:17:04;23.90;48.50
7234;DHT22;3658;47.992;10.158;2022-07-19T13:19:31;23.80;48.40
7234;DHT22;3658;47.992;10.158;2022-07-19T13:22:00;23.80;48.40
7234;DHT22;3658;47.992;10.158;2022-07-19T13:24:27;23.90;48.50
7234;DHT22;3658;47.992;10.158;2022-07-19T13:26:54;23.90;48.50
7234;DHT22;3658;47.992;10.158;2022-07-19T13:29:21;23.90;48.50
7234;DHT22;3658;47.992;10.158;2022-07-19T13:31:48;23.90;48.50
7234;DHT22;3658;47.992;10.158;2022-07-19T13:34:15;23.80;48.40
7234;DHT22;3658;47.992;10.158;2022-07-19T13:36:42;23.90;48.50
7234;DHT22;3658;47.992;10.158;2022-07-19T13:39:11;23.90;48.50
7234;DHT22;3658;47.992;10.158;2022-07-19T13:41:38;23.90;48.50
7234;DHT22;3658;47.992;10.158;2022-07-19T13:44:06;23.90;48.50
7234;DHT22;3658;47.992;10.158;2022-07-19T13:46:33;23.90;48.50
7234;DHT22;3658;47.992;10.158;2022-07-19T13:49:00;23.90;48.50
7234;DHT22;3658;47.992;10.158;2022-07-19T13:51:27;23.90;48.50
7234;DHT22;3658;47.992;10.158;2022-07-19T13:53:55;23.90;48.50
7234;DHT22;3658;47.992;10.158;2022-07-19T13:56:23;23.90;48.50
7234;DHT22;3658;47.992;10.158;2022-07-19T13:58:50;23.90;48.50
7234;DHT22;3658;47.992;10.158;2022-07-19T14:01:19;23.90;48.50
7234;DHT22;3658;47.992;10.158;2022-07-19T14:03:46;23.90;48.50
7234;DHT22;3658;47.992;10.158;2022-07-19T14:06:14;23.90;48.50
7234;DHT22;3658;47.992;10.158;2022-07-19T14:08:41;23.90;48.50
7234;DHT22;3658;47.992;10.158;2022-07-19T14:11:08;23.90;48.50
7234;DHT22;3658;47.992;10.158;2022-07-19T14:13:37;23.90;48.50
7234;DHT22;3658;47.992;10.158;2022-07-19T14:16:05;23.90;48.60
7234;DHT22;3658;47.992;10.158;2022-07-19T14:18:32;23.90;48.50
7234;DHT22;3658;47.992;10.158;2022-07-19T14:20:59;23.90;48.60
7234;DHT22;3658;47.992;10.158;2022-07-19T14:23:26;23.90;48.50
7234;DHT22;3658;47.992;10.158;2022-07-19T14:25:53;23.90;48.50
7234;DHT22;3658;47.992;10.158;2022-07-19T14:28:20;23.90;48.50
7234;DHT22;3658;47.992;10.158;2022-07-19T14:30:49;23.90;48.60
7234;DHT22;3658;47.992;10.158;2022-07-19T14:33:16;23.90;48.50
7234;DHT22;3658;47.992;10.158;2022-07-19T14:35:43;23.90;48.60
7234;DHT22;3658;47.992;10.158;2022-07-19T14:38:10;23.90;48.60
7234;DHT22;3658;47.992;10.158;2022-07-19T14:40:37;23.90;48.50
7234;DHT22;3658;47.992;10.158;2022-07-19T14:43:04;23.90;48.50
7234;DHT22;3658;47.992;10.158;2022-07-19T14:45:32;23.90;48.50
7234;DHT22;3658;47.992;10.158;2022-07-19T14:48:00;23.90;48.60
7234;DHT22;3658;47.992;10.158;2022-07-19T14:50:27;23.90;48.50
7234;DHT22;3658;47.992;10.158;2022-07-19T14:52:55;23.90;48.50
7234;DHT22;3658;47.992;10.158;2022-07-19T14:55:22;23.90;49.20
7234;DHT22;3658;47.992;10.158;2022-07-19T14:57:49;23.90;48.60
7234;DHT22;3658;47.992;10.158;2022-07-19T15:00:16;23.90;48.60
7234;DHT22;3658;47.992;10.158;2022-07-19T15:02:43;23.90;48.70
7234;DHT22;3658;47.992;10.158;2022-07-19T15:05:12;23.90;50.60
7234;DHT22;3658;47.992;10.158;2022-07-19T15:07:39;24.00;51.50
7234;DHT22;3658;47.992;10.158;2022-07-19T15:10:07;24.00;52.30
7234;DHT22;3658;47.992;10.158;2022-07-19T15:12:34;24.00;52.50
7234;DHT22;3658;47.992;10.158;2022-07-19T15:15:01;24.00;52.80
7234;DHT22;3658;47.992;10.158;2022-07-19T15:17:28;24.00;53.40
7234;DHT22;3658;47.992;10.158;2022-07-19T15:19:56;24.00;52.80
7234;DHT22;3658;47.992;10.158;2022-07-19T15:22:24;24.00;52.50
7234;DHT22;3658;47.992;10.158;2022-07-19T15:24:51;24.10;52.50
7234;DHT22;3658;47.992;10.158;2022-07-19T15:27:18;24.10;52.20
7234;DHT22;3658;47.992;10.158;2022-07-19T15:29:46;24.10;52.00
7234;DHT22;3658;47.992;10.158;2022-07-19T15:32:13;24.10;52.00
7234;DHT22;3658;47.992;10.158;2022-07-19T15:34:40;24.10;52.10
7234;DHT22;3658;47.992;10.158;2022-07-19T15:37:07;24.10;51.40
7234;DHT22;3658;47.992;10.158;2022-07-19T15:39:36;24.10;51.40
7234;DHT22;3658;47.992;10.158;2022-07-19T15:42:04;24.10;51.20
7234;DHT22;3658;47.992;10.158;2022-07-19T15:44:31;24.10;51.10
7234;DHT22;3658;47.992;10.158;2022-07-19T15:46:58;24.10;51.10
7234;DHT22;3658;47.992;10.158;2022-07-19T15:49:25;24.10;50.70
7234;DHT22;3658;47.992;10.158;2022-07-19T15:51:53;24.10;50.80
7234;DHT22;3658;47.992;10.158;2022-07-19T15:54:20;24.10;50.80
7234;DHT22;3658;47.992;10.158;2022-07-19T15:56:49;24.20;50.90